sensor_id;sensor_type;location;lat;lon;timestamp;temperature;humidity
41344;DHT22;27089;50.022;7.604;2023-04-25T00:01:40;7.90;99.90
41344;DHT22;27089;50.022;7.604;2023-04-25T00:04:08;7.90;99.90
41344;DHT22;27089;50.022;7.604;2023-04-25T00:06:37;7.90;99.90
41344;DHT22;27089;50.022;7.604;2023-04-25T00:09:05;7.90;99.90
41344;DHT22;27089;50.022;7.604;2023-04-25T00:11:34;7.90;99.90
41344;DHT22;27089;50.022;7.604;2023-04-25T00:14:02;7.90;99.90
41344;DHT22;27089;50.022;7.604;2023-04-25T00:16:29;7.90;99.90
41344;DHT22;27089;50.022;7.604;2023-04-25T00:18:59;7.90;99.90
41344;DHT22;27089;50.022;7.604;2023-04-25T00:21:28;7.90;99.90
41344;DHT22;27089;50.022;7.604;2023-04-25T00:23:57;7.90;99.90
41344;DHT22;27089;50.022;7.604;2023-04-25T00:26:24;7.90;99.90
41344;DHT22;27089;50.022;7.604;2023-04-25T00:28:51;7.90;99.90
41344;DHT22;27089;50.022;7.604;2023-04-25T00:31:18;7.90;99.90
41344;DHT22;27089;50.022;7.604;2023-04-25T00:33:45;7.90;99.90
41344;DHT22;27089;50.022;7.604;2023-04-25T00:36:12;7.80;99.90
41344;DHT22;27089;50.022;7.604;2023-04-25T00:38:40;7.80;99.90
41344;DHT22;27089;50.022;7.604;2023-04-25T00:41:07;7.70;99.90
41344;DHT22;27089;50.022;7.604;2023-04-25T00:43:36;7.70;99.90
41344;DHT22;27089;50.022;7.604;2023-04-25T00:46:03;7.60;99.90
41344;DHT22;27089;50.022;7.604;2023-04-25T00:48:30;7.50;99.90
41344;DHT22;27089;50.022;7.604;2023-04-25T00:50:58;7.40;99.90
41344;DHT22;27089;50.022;7.604;2023-04-25T00:53:27;7.40;99.90
41344;DHT22;27089;50.022;7.604;2023-04-25T00:55:56;7.30;99.90
41344;DHT22;27089;50.022;7.604;2023-04-25T00:58:23;7.30;99.90
41344;DHT22;27089;50.022;7.604;2023-04-25T01:00:51;7.40;99.90
41344;DHT22;27089;50.022;7.604;2023-04-25T01:03:18;7.40;99.90
41344;DHT22;27089;50.022;7.604;2023-04-25T01:05:46;7.30;99.90
41344;DHT22;27089;50.022;7.604;2023-04-25T01:08:14;7.30;99.90
41344;DHT22;27089;50.022;7.604;2023-04-25T01:10:41;7.30;99.90
41344;DHT22;27089;50.022;7.604;2023-04-25T01:13:09;7.20;99.90
41344;DHT22;27089;50.022;7.604;2023-04-25T01:15:37;7.10;99.90
41344;DHT22;27089;50.022;7.604;2023-04-25T01:18:04;7.00;99.90
41344;DHT22;27089;50.022;7.604;2023-04-25T01:20:32;6.90;99.90
41344;DHT22;27089;50.022;7.604;2023-04-25T01:23:02;6.80;99.90
41344;DHT22;27089;50.022;7.604;2023-04-25T01:25:29;6.60;99.90
41344;DHT22;27089;50.022;7.604;2023-04-25T01:27:57;6.50;99.90
41344;DHT22;27089;50.022;7.604;2023-04-25T01:30:25;6.50;99.90
41344;DHT22;27089;50.022;7.604;2023-04-25T01:32:53;6.40;99.90
41344;DHT22;27089;50.022;7.604;2023-04-25T01:35:21;6.40;99.90
41344;DHT22;27089;50.022;7.604;2023-04-25T01:37:49;6.40;99.90
41344;DHT22;27089;50.022;7.604;2023-04-25T01:40:18;6.40;99.90
41344;DHT22;27089;50.022;7.604;2023-04-25T01:42:46;6.50;99.90
41344;DHT22;27089;50.022;7.604;2023-04-25T01:45:13;6.50;99.90
41344;DHT22;27089;50.022;7.604;2023-04-25T01:47:40;6.50;99.90
41344;DHT22;27089;50.022;7.604;2023-04-25T01:50:10;6.40;99.90
41344;DHT22;27089;50.022;7.604;2023-04-25T01:52:37;6.40;99.90
41344;DHT22;27089;50.022;7.604;2023-04-25T01:55:06;6.30;99.90
41344;DHT22;27089;50.022;7.604;2023-04-25T01:57:34;6.40;99.90
41344;DHT22;27089;50.022;7.604;2023-04-25T02:00:03;6.40;99.90
41344;DHT22;27089;50.022;7.604;2023-04-25T02:02:31;6.40;99.90
41344;DHT22;27089;50.022;7.604;2023-04-25T02:04:58;6.40;99.90
41344;DHT22;27089;50.022;7.604;2023-04-25T02:07:26;6.40;99.90
41344;DHT22;27089;50.022;7.604;2023-04-25T02:09:53;6.40;99.90
41344;DHT22;27089;50.022;7.604;2023-04-25T02:12:20;6.40;99.90
41344;DHT22;27089;50.022;7.604;2023-04-25T02:14:48;6.40;99.90
41344;DHT22;27089;50.022;7.604;2023-04-25T02:17:15;6.40;99.90
41344;DHT22;27089;50.022;7.604;2023-04-25T02:19:43;6.50;99.90
41344;DHT22;27089;50.022;7.604;2023-04-25T02:22:11;6.50;99.90
41344;DHT22;27089;50.022;7.604;2023-04-25T02:24:38;6.50;99.90
41344;DHT22;27089;50.022;7.604;2023-04-25T02:27:05;6.40;99.90
41344;DHT22;27089;50.022;7.604;2023-04-25T02:29:33;6.40;99.90
41344;DHT22;27089;50.022;7.604;2023-04-25T02:32:02;6.30;99.90
41344;DHT22;27089;50.022;7.604;2023-04-25T02:34:29;6.30;99.90
41344;DHT22;27089;50.022;7.604;2023-04-25T02:36:55;6.40;99.90
41344;DHT22;27089;50.022;7.604;2023-04-25T02:39:22;6.50;99.90
41344;DHT22;27089;50.022;7.604;2023-04-25T02:41:51;6.50;99.90
41344;DHT22;27089;50.022;7.604;2023-04-25T02:44:18;6.60;99.90
41344;DHT22;27089;50.022;7.604;2023-04-25T02:46:45;6.70;99.90
41344;DHT22;27089;50.022;7.604;2023-04-25T02:49:14;6.70;99.90
41344;DHT22;27089;50.022;7.604;2023-04-25T02:51:41;6.80;99.90
41344;DHT22;27089;50.022;7.604;2023-04-25T02:54:07;6.90;99.90
41344;DHT22;27089;50.022;7.604;2023-04-25T02:56:34;6.90;99.90
41344;DHT22;27089;50.022;7.604;2023-04-25T02:59:01;6.90;99.90
41344;DHT22;27089;50.022;7.604;2023-04-25T03:01:28;6.90;99.90
41344;DHT22;27089;50.022;7.604;2023-04-25T03:03:55;6.90;99.90
41344;DHT22;27089;50.022;7.604;2023-04-25T03:06:23;6.80;99.90
41344;DHT22;27089;50.022;7.604;2023-04-25T03:08:51;6.70;99.90
41344;DHT22;27089;50.022;7.604;2023-04-25T03:11:17;6.70;99.90
41344;DHT22;27089;50.022;7.604;2023-04-25T03:13:45;6.70;99.90
41344;DHT22;27089;50.022;7.604;2023-04-25T03:16:12;6.60;99.90
41344;DHT22;27089;50.022;7.604;2023-04-25T03:18:39;6.60;99.90
41344;DHT22;27089;50.022;7.604;2023-04-25T03:21:06;6.60;99.90
41344;DHT22;27089;50.022;7.604;2023-04-25T03:23:35;6.60;99.90
41344;DHT22;27089;50.022;7.604;2023-04-25T03:26:02;6.60;99.90
41344;DHT22;27089;50.022;7.604;2023-04-25T03:28:29;6.60;99.90
41344;DHT22;27089;50.022;7.604;2023-04-25T03:30:56;6.70;99.90
41344;DHT22;27089;50.022;7.604;2023-04-25T03:33:23;6.70;99.90
41344;DHT22;27089;50.022;7.604;2023-04-25T03:35:50;6.70;99.90
41344;DHT22;27089;50.022;7.604;2023-04-25T03:38:17;6.70;99.90
41344;DHT22;27089;50.022;7.604;2023-04-25T03:40:45;6.70;99.90
41344;DHT22;27089;50.022;7.604;2023-04-25T03:43:12;6.70;99.90
41344;DHT22;27089;50.022;7.604;2023-04-25T03:45:40;6.70;99.90
41344;DHT22;27089;50.022;7.604;2023-04-25T03:48:07;6.70;99.90
41344;DHT22;27089;50.022;7.604;2023-04-25T03:50:34;6.70;99.90
41344;DHT22;27089;50.022;7.604;2023-04-25T03:53:01;6.70;99.90
41344;DHT22;27089;50.022;7.604;2023-04-25T03:55:28;6.60;99.90
41344;DHT22;27089;50.022;7.604;2023-04-25T03:57:57;6.60;99.90
41344;DHT22;27089;50.022;7.604;2023-04-25T04:00:25;6.50;99.90
41344;DHT22;27089;50.022;7.604;2023-04-25T04:02:52;6.50;99.90
41344;DHT22;27089;50.022;7.604;2023-04-25T04:05:19;6.50;99.90
41344;DHT22;27089;50.022;7.604;2023-04-25T04:07:46;6.40;99.90
41344;DHT22;27089;50.022;7.604;2023-04-25T04:10:13;6.40;99.90
41344;DHT22;27089;50.022;7.604;2023-04-25T04:12:40;6.40;99.90
41344;DHT22;27089;50.022;7.604;2023-04-25T04:15:09;6.40;99.90
41344;DHT22;27089;50.022;7.604;2023-04-25T04:17:37;6.40;99.90
41344;DHT22;27089;50.022;7.604;2023-04-25T04:20:05;6.40;99.90
41344;DHT22;27089;50.022;7.604;2023-04-25T04:22:33;6.50;99.90
41344;DHT22;27089;50.022;7.604;2023-04-25T04:25:00;6.40;99.90
41344;DHT22;27089;50.022;7.604;2023-04-25T04:27:28;6.40;99.90
41344;DHT22;27089;50.022;7.604;2023-04-25T04:29:55;6.50;99.90
41344;DHT22;27089;50.022;7.604;2023-04-25T04:32:24;6.60;99.90
41344;DHT22;27089;50.022;7.604;2023-04-25T04:34:53;6.70;99.90
41344;DHT22;27089;50.022;7.604;2023-04-25T04:37:21;6.70;99.90
41344;DHT22;27089;50.022;7.604;2023-04-25T04:39:48;6.70;99.90
41344;DHT22;27089;50.022;7.604;2023-04-25T04:42:15;6.70;99.90
41344;DHT22;27089;50.022;7.604;2023-04-25T04:44:42;6.80;99.90
41344;DHT22;27089;50.022;7.604;2023-04-25T04:47:10;6.80;99.90
41344;DHT22;27089;50.022;7.604;2023-04-25T04:49:41;6.80;99.90
41344;DHT22;27089;50.022;7.604;2023-04-25T04:52:08;6.80;99.90
41344;DHT22;27089;50.022;7.604;2023-04-25T04:54:35;6.80;99.90
41344;DHT22;27089;50.022;7.604;2023-04-25T04:57:02;6.80;99.90
41344;DHT22;27089;50.022;7.604;2023-04-25T04:59:29;6.70;99.90
41344;DHT22;27089;50.022;7.604;2023-04-25T05:01:56;6.80;99.90
41344;DHT22;27089;50.022;7.604;2023-04-25T05:04:23;7.10;99.90
41344;DHT22;27089;50.022;7.604;2023-04-25T05:06:52;7.00;99.90
41344;DHT22;27089;50.022;7.604;2023-04-25T05:09:19;7.00;99.90
41344;DHT22;27089;50.022;7.604;2023-04-25T05:11:46;7.10;99.90
41344;DHT22;27089;50.022;7.604;2023-04-25T05:14:13;7.10;99.90
41344;DHT22;27089;50.022;7.604;2023-04-25T05:16:40;7.10;99.90
41344;DHT22;27089;50.022;7.604;2023-04-25T05:19:07;7.10;99.90
41344;DHT22;27089;50.022;7.604;2023-04-25T05:21:34;7.00;99.90
41344;DHT22;27089;50.022;7.604;2023-04-25T05:24:02;7.00;99.90
41344;DHT22;27089;50.022;7.604;2023-04-25T05:26:29;6.90;99.90
41344;DHT22;27089;50.022;7.604;2023-04-25T05:28:57;6.90;99.90
41344;DHT22;27089;50.022;7.604;2023-04-25T05:31:24;6.90;99.90
41344;DHT22;27089;50.022;7.604;2023-04-25T05:33:51;7.00;99.90
41344;DHT22;27089;50.022;7.604;2023-04-25T05:36:18;7.00;99.90
41344;DHT22;27089;50.022;7.604;2023-04-25T05:38:45;7.20;99.90
41344;DHT22;27089;50.022;7.604;2023-04-25T05:41:14;7.20;99.90
41344;DHT22;27089;50.022;7.604;2023-04-25T05:43:41;7.30;99.90
41344;DHT22;27089;50.022;7.604;2023-04-25T05:46:12;7.30;99.90
41344;DHT22;27089;50.022;7.604;2023-04-25T05:48:40;7.30;99.90
41344;DHT22;27089;50.022;7.604;2023-04-25T05:51:06;7.30;99.90
41344;DHT22;27089;50.022;7.604;2023-04-25T05:53:33;7.50;99.90
41344;DHT22;27089;50.022;7.604;2023-04-25T05:56:01;7.70;99.90
41344;DHT22;27089;50.022;7.604;2023-04-25T05:58:29;7.90;99.90
41344;DHT22;27089;50.022;7.604;2023-04-25T06:00:56;8.00;99.90
41344;DHT22;27089;50.022;7.604;2023-04-25T06:03:23;8.00;99.90
41344;DHT22;27089;50.022;7.604;2023-04-25T06:05:50;7.80;99.90
41344;DHT22;27089;50.022;7.604;2023-04-25T06:08:17;7.80;99.90
41344;DHT22;27089;50.022;7.604;2023-04-25T06:10:45;7.70;99.90
41344;DHT22;27089;50.022;7.604;2023-04-25T06:13:12;7.60;99.90
41344;DHT22;27089;50.022;7.604;2023-04-25T06:15:40;7.60;99.90
41344;DHT22;27089;50.022;7.604;2023-04-25T06:18:07;7.50;99.90
41344;DHT22;27089;50.022;7.604;2023-04-25T06:20:34;7.40;99.90
41344;DHT22;27089;50.022;7.604;2023-04-25T06:23:01;7.30;99.90
41344;DHT22;27089;50.022;7.604;2023-04-25T06:25:28;7.30;99.90
41344;DHT22;27089;50.022;7.604;2023-04-25T06:27:55;7.40;99.90
41344;DHT22;27089;50.022;7.604;2023-04-25T06:30:22;7.40;99.90
41344;DHT22;27089;50.022;7.604;2023-04-25T06:32:52;7.60;99.90
41344;DHT22;27089;50.022;7.604;2023-04-25T06:35:19;7.80;99.90
41344;DHT22;27089;50.022;7.604;2023-04-25T06:37:46;8.10;99.90
41344;DHT22;27089;50.022;7.604;2023-04-25T06:40:13;8.50;99.90
41344;DHT22;27089;50.022;7.604;2023-04-25T06:42:42;8.90;99.90
41344;DHT22;27089;50.022;7.604;2023-04-25T06:45:10;9.10;99.90
41344;DHT22;27089;50.022;7.604;2023-04-25T06:47:37;9.30;99.90
41344;DHT22;27089;50.022;7.604;2023-04-25T06:50:07;9.30;99.90
41344;DHT22;27089;50.022;7.604;2023-04-25T06:52:34;9.60;99.90
41344;DHT22;27089;50.022;7.604;2023-04-25T06:55:01;9.90;99.90
41344;DHT22;27089;50.022;7.604;2023-04-25T06:57:30;10.20;99.90
41344;DHT22;27089;50.022;7.604;2023-04-25T06:59:57;10.30;99.90
41344;DHT22;27089;50.022;7.604;2023-04-25T07:02:24;10.60;99.90
41344;DHT22;27089;50.022;7.604;2023-04-25T07:04:51;11.00;99.90
41344;DHT22;27089;50.022;7.604;2023-04-25T07:07:20;10.80;99.90
41344;DHT22;27089;50.022;7.604;2023-04-25T07:09:46;10.70;99.90
41344;DHT22;27089;50.022;7.604;2023-04-25T07:12:13;10.60;99.90
41344;DHT22;27089;50.022;7.604;2023-04-25T07:14:40;10.60;99.90
41344;DHT22;27089;50.022;7.604;2023-04-25T07:17:07;10.60;99.90
41344;DHT22;27089;50.022;7.604;2023-04-25T07:19:34;10.50;99.90
41344;DHT22;27089;50.022;7.604;2023-04-25T07:22:03;10.20;99.90
41344;DHT22;27089;50.022;7.604;2023-04-25T07:24:31;10.00;99.90
41344;DHT22;27089;50.022;7.604;2023-04-25T07:26:58;9.70;99.90
41344;DHT22;27089;50.022;7.604;2023-04-25T07:29:27;9.50;99.90
41344;DHT22;27089;50.022;7.604;2023-04-25T07:31:55;9.10;99.90
41344;DHT22;27089;50.022;7.604;2023-04-25T07:34:22;8.80;99.90
41344;DHT22;27089;50.022;7.604;2023-04-25T07:36:49;8.40;99.90
41344;DHT22;27089;50.022;7.604;2023-04-25T07:39:16;8.40;99.90
41344;DHT22;27089;50.022;7.604;2023-04-25T07:41:45;8.30;99.90
41344;DHT22;27089;50.022;7.604;2023-04-25T07:44:11;8.20;99.90
41344;DHT22;27089;50.022;7.604;2023-04-25T07:46:38;8.20;99.90
41344;DHT22;27089;50.022;7.604;2023-04-25T07:49:05;8.30;99.90
41344;DHT22;27089;50.022;7.604;2023-04-25T07:51:32;8.20;99.90
41344;DHT22;27089;50.022;7.604;2023-04-25T07:53:59;8.20;99.90
41344;DHT22;27089;50.022;7.604;2023-04-25T07:56:26;8.20;99.90
41344;DHT22;27089;50.022;7.604;2023-04-25T07:58:55;8.30;99.90
41344;DHT22;27089;50.022;7.604;2023-04-25T08:01:22;8.30;99.90
41344;DHT22;27089;50.022;7.604;2023-04-25T08:03:49;8.30;99.90
41344;DHT22;27089;50.022;7.604;2023-04-25T08:06:16;8.10;99.90
41344;DHT22;27089;50.022;7.604;2023-04-25T08:08:43;8.10;99.90
41344;DHT22;27089;50.022;7.604;2023-04-25T08:11:11;8.20;99.90
41344;DHT22;27089;50.022;7.604;2023-04-25T08:13:37;8.20;99.90
41344;DHT22;27089;50.022;7.604;2023-04-25T08:16:06;8.20;99.90
41344;DHT22;27089;50.022;7.604;2023-04-25T08:18:33;8.20;99.90
41344;DHT22;27089;50.022;7.604;2023-04-25T08:21:00;8.30;99.90
41344;DHT22;27089;50.022;7.604;2023-04-25T08:23:27;8.30;99.90
41344;DHT22;27089;50.022;7.604;2023-04-25T08:25:54;8.30;99.90
41344;DHT22;27089;50.022;7.604;2023-04-25T08:28:21;8.50;99.90
41344;DHT22;27089;50.022;7.604;2023-04-25T08:30:48;8.60;99.90
41344;DHT22;27089;50.022;7.604;2023-04-25T08:33:16;9.10;99.90
41344;DHT22;27089;50.022;7.604;2023-04-25T08:35:44;9.40;99.90
41344;DHT22;27089;50.022;7.604;2023-04-25T08:38:11;9.20;99.90
41344;DHT22;27089;50.022;7.604;2023-04-25T08:40:39;8.90;99.90
41344;DHT22;27089;50.022;7.604;2023-04-25T08:43:06;8.80;99.90
41344;DHT22;27089;50.022;7.604;2023-04-25T08:45:38;8.80;99.90
41344;DHT22;27089;50.022;7.604;2023-04-25T08:48:07;8.80;99.90
41344;DHT22;27089;50.022;7.604;2023-04-25T08:50:40;8.70;99.90
41344;DHT22;27089;50.022;7.604;2023-04-25T08:53:09;8.90;99.90
41344;DHT22;27089;50.022;7.604;2023-04-25T08:55:41;9.20;99.90
41344;DHT22;27089;50.022;7.604;2023-04-25T08:58:10;9.40;99.90
41344;DHT22;27089;50.022;7.604;2023-04-25T09:00:37;9.60;99.90
41344;DHT22;27089;50.022;7.604;2023-04-25T09:03:05;9.80;99.90
41344;DHT22;27089;50.022;7.604;2023-04-25T09:05:32;9.90;99.90
41344;DHT22;27089;50.022;7.604;2023-04-25T09:08:02;10.20;99.90
41344;DHT22;27089;50.022;7.604;2023-04-25T09:10:29;10.40;99.90
41344;DHT22;27089;50.022;7.604;2023-04-25T09:13:03;10.60;99.90
41344;DHT22;27089;50.022;7.604;2023-04-25T09:15:31;10.70;99.90
41344;DHT22;27089;50.022;7.604;2023-04-25T09:17:59;10.70;99.90
41344;DHT22;27089;50.022;7.604;2023-04-25T09:20:26;10.90;99.90
41344;DHT22;27089;50.022;7.604;2023-04-25T09:23:03;11.00;99.90
41344;DHT22;27089;50.022;7.604;2023-04-25T09:25:34;11.30;99.90
41344;DHT22;27089;50.022;7.604;2023-04-25T09:28:04;11.30;99.90
41344;DHT22;27089;50.022;7.604;2023-04-25T09:30:33;11.50;99.90
41344;DHT22;27089;50.022;7.604;2023-04-25T09:33:04;12.60;99.90
41344;DHT22;27089;50.022;7.604;2023-04-25T09:35:36;13.80;99.90
41344;DHT22;27089;50.022;7.604;2023-04-25T09:38:09;13.80;99.90
41344;DHT22;27089;50.022;7.604;2023-04-25T09:40:40;13.50;99.90
41344;DHT22;27089;50.022;7.604;2023-04-25T09:43:09;13.20;99.90
41344;DHT22;27089;50.022;7.604;2023-04-25T09:45:46;13.00;99.90
41344;DHT22;27089;50.022;7.604;2023-04-25T09:48:17;13.00;99.90
41344;DHT22;27089;50.022;7.604;2023-04-25T09:50:45;12.50;99.90
41344;DHT22;27089;50.022;7.604;2023-04-25T09:53:14;11.80;99.90
41344;DHT22;27089;50.022;7.604;2023-04-25T09:55:42;11.50;99.90
41344;DHT22;27089;50.022;7.604;2023-04-25T09:58:11;11.20;99.90
41344;DHT22;27089;50.022;7.604;2023-04-25T10:00:38;11.00;99.90
41344;DHT22;27089;50.022;7.604;2023-04-25T10:03:06;11.10;99.90
41344;DHT22;27089;50.022;7.604;2023-04-25T10:05:34;11.20;99.90
41344;DHT22;27089;50.022;7.604;2023-04-25T10:08:03;11.90;99.90
41344;DHT22;27089;50.022;7.604;2023-04-25T10:10:33;12.40;99.90
41344;DHT22;27089;50.022;7.604;2023-04-25T10:13:04;12.60;99.90
41344;DHT22;27089;50.022;7.604;2023-04-25T10:15:34;13.10;99.90
41344;DHT22;27089;50.022;7.604;2023-04-25T10:18:02;12.90;99.90
41344;DHT22;27089;50.022;7.604;2023-04-25T10:20:30;12.70;99.90
41344;DHT22;27089;50.022;7.604;2023-04-25T10:23:03;12.60;99.90
41344;DHT22;27089;50.022;7.604;2023-04-25T10:25:33;12.40;99.90
41344;DHT22;27089;50.022;7.604;2023-04-25T10:28:00;12.60;99.90
41344;DHT22;27089;50.022;7.604;2023-04-25T10:30:28;12.40;99.90
41344;DHT22;27089;50.022;7.604;2023-04-25T10:32:55;12.60;99.90
41344;DHT22;27089;50.022;7.604;2023-04-25T10:35:26;12.70;99.90
41344;DHT22;27089;50.022;7.604;2023-04-25T10:38:00;12.90;99.90
41344;DHT22;27089;50.022;7.604;2023-04-25T10:40:29;12.80;99.90
41344;DHT22;27089;50.022;7.604;2023-04-25T10:43:33;12.60;99.90
41344;DHT22;27089;50.022;7.604;2023-04-25T10:46:01;12.70;99.90
41344;DHT22;27089;50.022;7.604;2023-04-25T10:48:29;12.90;99.90
41344;DHT22;27089;50.022;7.604;2023-04-25T10:51:08;12.90;99.90
41344;DHT22;27089;50.022;7.604;2023-04-25T10:53:36;12.90;99.90
41344;DHT22;27089;50.022;7.604;2023-04-25T10:56:10;12.80;99.90
41344;DHT22;27089;50.022;7.604;2023-04-25T10:58:43;12.80;99.90
41344;DHT22;27089;50.022;7.604;2023-04-25T11:01:10;12.30;99.90
41344;DHT22;27089;50.022;7.604;2023-04-25T11:03:41;12.10;99.90
41344;DHT22;27089;50.022;7.604;2023-04-25T11:06:17;11.80;99.90
41344;DHT22;27089;50.022;7.604;2023-04-25T11:08:48;11.90;99.90
41344;DHT22;27089;50.022;7.604;2023-04-25T11:11:15;11.90;99.90
41344;DHT22;27089;50.022;7.604;2023-04-25T11:13:44;12.20;99.90
41344;DHT22;27089;50.022;7.604;2023-04-25T11:16:11;12.30;99.90
41344;DHT22;27089;50.022;7.604;2023-04-25T11:18:40;12.70;99.90
41344;DHT22;27089;50.022;7.604;2023-04-25T11:21:07;12.70;99.90
41344;DHT22;27089;50.022;7.604;2023-04-25T11:23:34;12.60;99.90
41344;DHT22;27089;50.022;7.604;2023-04-25T11:26:01;12.40;99.90
41344;DHT22;27089;50.022;7.604;2023-04-25T11:28:29;12.30;99.90
41344;DHT22;27089;50.022;7.604;2023-04-25T11:30:58;12.30;99.90
41344;DHT22;27089;50.022;7.604;2023-04-25T11:33:26;12.40;99.90
41344;DHT22;27089;50.022;7.604;2023-04-25T11:35:54;12.40;99.90
41344;DHT22;27089;50.022;7.604;2023-04-25T11:38:22;12.40;99.90
41344;DHT22;27089;50.022;7.604;2023-04-25T11:40:50;12.40;99.90
41344;DHT22;27089;50.022;7.604;2023-04-25T11:43:18;12.60;99.90
41344;DHT22;27089;50.022;7.604;2023-04-25T11:45:47;12.40;99.90
41344;DHT22;27089;50.022;7.604;2023-04-25T11:48:16;12.50;99.90
41344;DHT22;27089;50.022;7.604;2023-04-25T11:50:43;12.70;99.90
41344;DHT22;27089;50.022;7.604;2023-04-25T11:53:10;12.70;99.90
41344;DHT22;27089;50.022;7.604;2023-04-25T11:55:37;12.70;99.90
41344;DHT22;27089;50.022;7.604;2023-04-25T11:58:05;12.40;99.90
41344;DHT22;27089;50.022;7.604;2023-04-25T12:00:35;12.20;99.90
41344;DHT22;27089;50.022;7.604;2023-04-25T12:03:02;12.10;99.90
41344;DHT22;27089;50.022;7.604;2023-04-25T12:05:31;12.20;99.90
41344;DHT22;27089;50.022;7.604;2023-04-25T12:08:15;12.20;99.90
41344;DHT22;27089;50.022;7.604;2023-04-25T12:10:43;12.50;99.90
41344;DHT22;27089;50.022;7.604;2023-04-25T12:13:22;12.70;99.90
41344;DHT22;27089;50.022;7.604;2023-04-25T12:15:49;12.90;99.90
41344;DHT22;27089;50.022;7.604;2023-04-25T12:18:19;13.00;99.90
41344;DHT22;27089;50.022;7.604;2023-04-25T12:20:48;12.90;99.90
41344;DHT22;27089;50.022;7.604;2023-04-25T12:23:15;13.00;99.90
41344;DHT22;27089;50.022;7.604;2023-04-25T12:25:42;12.90;99.90
41344;DHT22;27089;50.022;7.604;2023-04-25T12:28:14;12.90;99.90
41344;DHT22;27089;50.022;7.604;2023-04-25T12:30:55;12.80;99.90
41344;DHT22;27089;50.022;7.604;2023-04-25T12:33:23;12.30;99.90
41344;DHT22;27089;50.022;7.604;2023-04-25T12:35:52;12.20;99.90
41344;DHT22;27089;50.022;7.604;2023-04-25T12:38:23;12.10;99.90
41344;DHT22;27089;50.022;7.604;2023-04-25T12:40:51;12.30;99.90
41344;DHT22;27089;50.022;7.604;2023-04-25T12:43:18;12.60;99.90
41344;DHT22;27089;50.022;7.604;2023-04-25T12:45:47;13.00;99.90
41344;DHT22;27089;50.022;7.604;2023-04-25T12:48:15;12.90;99.90
41344;DHT22;27089;50.022;7.604;2023-04-25T12:50:42;12.90;99.90
41344;DHT22;27089;50.022;7.604;2023-04-25T12:53:11;12.90;99.90
41344;DHT22;27089;50.022;7.604;2023-04-25T12:55:38;13.00;99.90
41344;DHT22;27089;50.022;7.604;2023-04-25T12:58:05;12.90;99.90
41344;DHT22;27089;50.022;7.604;2023-04-25T13:00:33;13.10;99.90
41344;DHT22;27089;50.022;7.604;2023-04-25T13:03:00;13.10;99.90
41344;DHT22;27089;50.022;7.604;2023-04-25T13:05:27;13.00;99.90
41344;DHT22;27089;50.022;7.604;2023-04-25T13:07:55;13.20;99.90
41344;DHT22;27089;50.022;7.604;2023-04-25T13:10:24;13.30;99.90
41344;DHT22;27089;50.022;7.604;2023-04-25T13:12:51;13.30;99.90
41344;DHT22;27089;50.022;7.604;2023-04-25T13:15:18;13.10;99.90
41344;DHT22;27089;50.022;7.604;2023-04-25T13:17:46;12.60;99.90
41344;DHT22;27089;50.022;7.604;2023-04-25T13:20:13;12.20;99.90
41344;DHT22;27089;50.022;7.604;2023-04-25T13:22:42;12.20;99.90
41344;DHT22;27089;50.022;7.604;2023-04-25T13:25:11;12.10;99.90
41344;DHT22;27089;50.022;7.604;2023-04-25T13:27:39;12.00;99.90
41344;DHT22;27089;50.022;7.604;2023-04-25T13:30:07;12.00;99.90
41344;DHT22;27089;50.022;7.604;2023-04-25T13:32:34;12.20;99.90
41344;DHT22;27089;50.022;7.604;2023-04-25T13:35:03;12.20;99.90
41344;DHT22;27089;50.022;7.604;2023-04-25T13:37:30;12.20;99.90
41344;DHT22;27089;50.022;7.604;2023-04-25T13:39:59;12.30;99.90
41344;DHT22;27089;50.022;7.604;2023-04-25T13:42:26;12.20;99.90
41344;DHT22;27089;50.022;7.604;2023-04-25T13:44:55;12.30;99.90
41344;DHT22;27089;50.022;7.604;2023-04-25T13:47:22;12.20;99.90
41344;DHT22;27089;50.022;7.604;2023-04-25T13:49:49;11.70;99.90
41344;DHT22;27089;50.022;7.604;2023-04-25T13:52:16;11.60;99.90
41344;DHT22;27089;50.022;7.604;2023-04-25T13:54:43;11.70;99.90
41344;DHT22;27089;50.022;7.604;2023-04-25T13:57:11;11.90;99.90
41344;DHT22;27089;50.022;7.604;2023-04-25T13:59:39;12.00;99.90
41344;DHT22;27089;50.022;7.604;2023-04-25T14:02:08;12.30;99.90
41344;DHT22;27089;50.022;7.604;2023-04-25T14:04:35;12.50;99.90
41344;DHT22;27089;50.022;7.604;2023-04-25T14:07:03;12.70;99.90
41344;DHT22;27089;50.022;7.604;2023-04-25T14:09:30;13.10;99.90
41344;DHT22;27089;50.022;7.604;2023-04-25T14:11:58;13.70;99.90
41344;DHT22;27089;50.022;7.604;2023-04-25T14:14:26;13.80;99.90
41344;DHT22;27089;50.022;7.604;2023-04-25T14:16:53;13.30;99.90
41344;DHT22;27089;50.022;7.604;2023-04-25T14:19:22;13.00;99.90
41344;DHT22;27089;50.022;7.604;2023-04-25T14:21:49;12.60;99.90
41344;DHT22;27089;50.022;7.604;2023-04-25T14:24:16;12.40;99.90
41344;DHT22;27089;50.022;7.604;2023-04-25T14:26:43;12.20;99.90
41344;DHT22;27089;50.022;7.604;2023-04-25T14:29:10;11.90;99.90
41344;DHT22;27089;50.022;7.604;2023-04-25T14:31:39;11.40;99.90
41344;DHT22;27089;50.022;7.604;2023-04-25T14:34:06;11.10;99.90
41344;DHT22;27089;50.022;7.604;2023-04-25T14:36:35;10.80;99.90
41344;DHT22;27089;50.022;7.604;2023-04-25T14:39:03;10.70;99.90
41344;DHT22;27089;50.022;7.604;2023-04-25T14:41:30;10.60;99.90
41344;DHT22;27089;50.022;7.604;2023-04-25T14:43:57;10.60;99.90
41344;DHT22;27089;50.022;7.604;2023-04-25T14:46:24;10.50;99.90
41344;DHT22;27089;50.022;7.604;2023-04-25T14:48:51;10.60;99.90
41344;DHT22;27089;50.022;7.604;2023-04-25T14:51:18;10.50;99.90
41344;DHT22;27089;50.022;7.604;2023-04-25T14:53:47;10.50;99.90
41344;DHT22;27089;50.022;7.604;2023-04-25T14:56:14;10.50;99.90
41344;DHT22;27089;50.022;7.604;2023-04-25T14:58:41;10.40;99.90
41344;DHT22;27089;50.022;7.604;2023-04-25T15:01:08;10.50;99.90
41344;DHT22;27089;50.022;7.604;2023-04-25T15:03:36;10.70;99.90
41344;DHT22;27089;50.022;7.604;2023-04-25T15:06:03;10.60;99.90
41344;DHT22;27089;50.022;7.604;2023-04-25T15:08:31;10.60;99.90
41344;DHT22;27089;50.022;7.604;2023-04-25T15:11:00;10.80;99.90
41344;DHT22;27089;50.022;7.604;2023-04-25T15:13:28;11.00;99.90
41344;DHT22;27089;50.022;7.604;2023-04-25T15:15:56;11.00;99.90
41344;DHT22;27089;50.022;7.604;2023-04-25T15:18:23;10.90;99.90
41344;DHT22;27089;50.022;7.604;2023-04-25T15:20:51;10.90;99.90
41344;DHT22;27089;50.022;7.604;2023-04-25T15:23:19;11.00;99.90
41344;DHT22;27089;50.022;7.604;2023-04-25T15:25:47;11.10;99.90
41344;DHT22;27089;50.022;7.604;2023-04-25T15:28:15;11.20;99.90
41344;DHT22;27089;50.022;7.604;2023-04-25T15:30:42;11.20;99.90
41344;DHT22;27089;50.022;7.604;2023-04-25T15:33:09;11.10;99.90
41344;DHT22;27089;50.022;7.604;2023-04-25T15:35:36;11.10;99.90
41344;DHT22;27089;50.022;7.604;2023-04-25T15:38:03;11.00;99.90
41344;DHT22;27089;50.022;7.604;2023-04-25T15:40:30;11.10;99.90
41344;DHT22;27089;50.022;7.604;2023-04-25T15:42:57;11.00;99.90
41344;DHT22;27089;50.022;7.604;2023-04-25T15:45:26;10.90;99.90